createdAt,value
2019-05-30T00:00:35.086Z,53.90
2019-05-30T00:03:02.343Z,54.60
2019-05-30T00:05:28.814Z,53.90
2019-05-30T00:07:56.238Z,54.10
2019-05-30T00:10:22.611Z,54.40
2019-05-30T00:12:49.068Z,54.10
2019-05-30T00:15:15.878Z,53.70
2019-05-30T00:17:42.265Z,53.50
2019-05-30T00:20:09.178Z,53.00
2019-05-30T00:22:35.625Z,52.80
2019-05-30T00:25:06.421Z,52.70
2019-05-30T00:27:35.476Z,53.50
2019-05-30T00:30:03.564Z,52.90
2019-05-30T00:32:32.767Z,53.00
2019-05-30T00:34:59.650Z,53.10
2019-05-30T00:37:27.250Z,52.50
2019-05-30T00:39:53.605Z,53.40
2019-05-30T00:42:19.895Z,53.30
2019-05-30T00:44:46.258Z,53.50
2019-05-30T00:47:12.620Z,53.30
2019-05-30T00:49:39.037Z,52.90
2019-05-30T00:52:06.674Z,53.30
2019-05-30T00:54:33.341Z,53.20
2019-05-30T00:57:00.686Z,53.20
2019-05-30T00:59:27.079Z,53.20
2019-05-30T01:01:54.297Z,53.50
2019-05-30T01:04:20.707Z,54.00
2019-05-30T01:06:47.002Z,54.30
2019-05-30T01:09:13.274Z,54.80
2019-05-30T01:11:39.663Z,55.40
2019-05-30T01:14:07.359Z,57.30
2019-05-30T01:16:35.306Z,57.50
2019-05-30T01:19:01.586Z,58.00
2019-05-30T01:21:27.830Z,59.00
2019-05-30T01:23:54.226Z,59.80
2019-05-30T01:26:20.638Z,59.80
2019-05-30T01:28:48.827Z,60.90
2019-05-30T01:31:15.094Z,61.80
2019-05-30T01:33:41.486Z,62.30
2019-05-30T01:36:07.961Z,63.20
2019-05-30T01:38:34.307Z,63.70
2019-05-30T01:41:02.327Z,64.20
2019-05-30T01:43:28.832Z,65.10
2019-05-30T01:45:55.292Z,66.10
2019-05-30T01:48:21.869Z,66.20
2019-05-30T01:50:48.280Z,66.40
2019-05-30T01:53:14.806Z,66.90
2019-05-30T01:55:41.183Z,66.70
2019-05-30T01:58:08.962Z,67.30
2019-05-30T02:00:38.254Z,68.70
2019-05-30T02:03:05.302Z,69.90
2019-05-30T02:05:31.952Z,70.60
2019-05-30T02:07:59.000Z,71.60
2019-05-30T02:10:25.573Z,73.00
2019-05-30T02:12:51.927Z,74.50
2019-05-30T02:15:18.604Z,75.60
2019-05-30T02:17:44.992Z,75.80
2019-05-30T02:20:11.984Z,76.10
2019-05-30T02:22:38.345Z,76.60
2019-05-30T02:25:06.033Z,77.90
2019-05-30T02:27:32.435Z,78.90
2019-05-30T02:30:00.061Z,78.60
2019-05-30T02:32:26.701Z,80.20
2019-05-30T02:34:53.072Z,80.80
2019-05-30T02:37:20.803Z,81.10
2019-05-30T02:39:47.171Z,81.30
2019-05-30T02:42:14.536Z,82.40
2019-05-30T02:44:42.022Z,81.70
2019-05-30T02:47:09.557Z,83.20
2019-05-30T02:49:36.506Z,82.50
2019-05-30T02:52:04.917Z,83.20
2019-05-30T02:54:31.880Z,83.90
2019-05-30T02:56:58.275Z,84.10
2019-05-30T02:59:24.644Z,83.40
2019-05-30T03:02:01.333Z,82.80
2019-05-30T03:04:19.085Z,83.60
2019-05-30T03:06:45.524Z,84.10
2019-05-30T03:09:13.188Z,83.90
2019-05-30T03:11:40.112Z,84.80
2019-05-30T03:14:09.236Z,84.60
2019-05-30T03:16:35.269Z,84.50
2019-05-30T03:19:01.959Z,84.90
2019-05-30T03:21:28.383Z,84.60
2019-05-30T03:23:54.862Z,85.10
2019-05-30T03:26:21.179Z,85.00
2019-05-30T03:28:47.670Z,84.50
2019-05-30T03:31:27.206Z,85.50
2019-05-30T03:33:45.297Z,85.20
2019-05-30T03:36:24.246Z,85.60
2019-05-30T03:38:40.312Z,85.80
2019-05-30T03:41:09.049Z,85.20
2019-05-30T03:43:36.409Z,85.70
2019-05-30T03:46:08.277Z,85.50
2019-05-30T03:48:37.908Z,85.90
2019-05-30T03:51:08.818Z,85.60
2019-05-30T03:53:34.969Z,85.60
2019-05-30T03:56:09.304Z,86.50
2019-05-30T03:58:48.843Z,87.70
2019-05-30T04:01:31.080Z,86.60
2019-05-30T04:04:09.321Z,86.10
2019-05-30T04:06:47.262Z,85.60
2019-05-30T04:09:22.445Z,84.60
2019-05-30T04:12:10.241Z,86.20
2019-05-30T04:14:40.072Z,86.90
2019-05-30T04:17:08.296Z,87.20
2019-05-30T04:19:34.445Z,86.90
2019-05-30T04:22:15.501Z,86.90
2019-05-30T04:24:41.896Z,87.60
2019-05-30T04:27:09.852Z,88.00
2019-05-30T04:29:36.273Z,87.50
2019-05-30T04:32:02.489Z,88.10
2019-05-30T04:34:28.773Z,87.70
2019-05-30T04:36:55.184Z,87.40
2019-05-30T04:39:21.470Z,87.50
2019-05-30T04:41:47.785Z,86.70
2019-05-30T04:44:16.015Z,87.20
2019-05-30T04:46:42.153Z,87.80
2019-05-30T04:49:10.062Z,87.90
2019-05-30T04:51:36.706Z,87.90
2019-05-30T04:54:03.325Z,88.40
2019-05-30T04:56:30.542Z,87.90
2019-05-30T04:58:56.802Z,88.60
2019-05-30T05:01:23.114Z,87.90
2019-05-30T05:03:49.423Z,87.30
2019-05-30T05:06:15.954Z,87.50
2019-05-30T05:08:42.685Z,88.20
2019-05-30T05:11:12.366Z,88.20
2019-05-30T05:13:37.033Z,87.60
2019-05-30T05:16:21.464Z,88.70
2019-05-30T05:18:31.356Z,87.40
2019-05-30T05:20:57.701Z,88.40
2019-05-30T05:23:23.909Z,88.80
2019-05-30T05:26:00.249Z,88.50
2019-05-30T05:28:18.273Z,88.90
2019-05-30T05:30:44.703Z,88.60
2019-05-30T05:33:11.052Z,88.40
2019-05-30T05:35:37.377Z,87.10
2019-05-30T05:38:03.666Z,88.00
2019-05-30T05:40:30.085Z,88.20
2019-05-30T05:42:56.336Z,88.90
2019-05-30T05:45:22.946Z,88.70
2019-05-30T05:47:49.373Z,88.60
2019-05-30T05:50:16.746Z,88.10
2019-05-30T05:52:43.133Z,87.70
2019-05-30T05:55:09.857Z,88.30
2019-05-30T05:57:36.085Z,87.80
2019-05-30T06:00:07.351Z,88.70
2019-05-30T06:02:33.653Z,88.40
2019-05-30T06:04:59.877Z,88.50
2019-05-30T06:07:26.125Z,87.80
2019-05-30T06:09:52.413Z,88.50
2019-05-30T06:12:19.640Z,88.80
2019-05-30T06:14:46.165Z,89.30
2019-05-30T06:17:12.393Z,88.70
2019-05-30T06:19:46.627Z,88.70
2019-05-30T06:22:06.857Z,87.30
2019-05-30T06:24:34.173Z,88.20
2019-05-30T06:27:00.405Z,87.50
2019-05-30T06:29:26.613Z,88.10
2019-05-30T06:31:52.854Z,87.70
2019-05-30T06:34:29.198Z,88.00
2019-05-30T06:36:47.311Z,88.10
2019-05-30T06:39:13.524Z,88.70
2019-05-30T06:41:39.833Z,88.60
2019-05-30T06:44:06.071Z,89.00
2019-05-30T06:46:33.501Z,88.90
2019-05-30T06:49:00.649Z,88.40
2019-05-30T06:51:26.998Z,89.30
2019-05-30T06:53:53.391Z,88.40
2019-05-30T06:56:21.120Z,88.90
2019-05-30T06:58:49.053Z,88.30
2019-05-30T07:01:15.621Z,88.50
2019-05-30T07:03:41.896Z,89.00
2019-05-30T07:06:08.828Z,88.90
2019-05-30T07:08:35.422Z,89.30
2019-05-30T07:11:01.763Z,89.00
2019-05-30T07:13:29.227Z,88.90
2019-05-30T07:15:55.583Z,89.60
2019-05-30T07:18:23.352Z,88.90
2019-05-30T07:20:49.833Z,89.20
2019-05-30T07:23:16.053Z,88.70
2019-05-30T07:25:42.305Z,88.60
2019-05-30T07:28:08.520Z,88.80
2019-05-30T07:30:34.741Z,88.40
2019-05-30T07:33:01.103Z,88.40
2019-05-30T07:35:27.983Z,88.30
2019-05-30T07:37:54.353Z,87.90
2019-05-30T07:40:20.585Z,88.30
2019-05-30T07:42:46.794Z,88.70
2019-05-30T07:45:13.676Z,88.60
2019-05-30T07:47:40.101Z,88.80
2019-05-30T07:50:06.934Z,88.80
2019-05-30T07:52:33.190Z,89.20
2019-05-30T07:54:59.530Z,88.60
2019-05-30T07:57:26.108Z,88.90
2019-05-30T07:59:52.557Z,89.00
2019-05-30T08:02:18.801Z,88.60
2019-05-30T08:04:46.990Z,89.10
2019-05-30T08:07:13.157Z,89.30
2019-05-30T08:09:39.407Z,89.50
2019-05-30T08:12:05.820Z,89.90
2019-05-30T08:14:33.178Z,90.10
2019-05-30T08:16:59.677Z,90.10
2019-05-30T08:19:25.893Z,90.20
2019-05-30T08:21:52.098Z,90.30
2019-05-30T08:24:18.337Z,90.20
2019-05-30T08:26:44.565Z,90.40
2019-05-30T08:29:10.788Z,90.10
2019-05-30T08:31:37.135Z,90.30
2019-05-30T08:34:03.464Z,90.10
2019-05-30T08:36:30.770Z,90.10
2019-05-30T08:38:57.242Z,90.30
2019-05-30T08:41:23.517Z,90.20
2019-05-30T08:43:49.740Z,90.30
2019-05-30T08:46:15.982Z,90.20
2019-05-30T08:48:42.197Z,90.30
2019-05-30T08:51:08.417Z,90.40
2019-05-30T08:53:34.673Z,90.40
2019-05-30T08:56:00.879Z,90.40
2019-05-30T08:58:27.196Z,90.30
2019-05-30T09:00:53.444Z,90.10
2019-05-30T09:03:19.761Z,90.40
2019-05-30T09:06:01.704Z,90.30
2019-05-30T09:08:14.237Z,90.30
2019-05-30T09:10:40.822Z,90.30
2019-05-30T09:13:07.371Z,90.20
2019-05-30T09:15:33.609Z,90.40
2019-05-30T09:17:59.840Z,90.40
2019-05-30T09:20:26.462Z,90.40
2019-05-30T09:22:52.707Z,90.50
2019-05-30T09:25:19.347Z,90.50
2019-05-30T09:27:46.624Z,90.50
2019-05-30T09:30:15.930Z,90.40
2019-05-30T09:32:43.254Z,90.70
2019-05-30T09:35:10.789Z,90.60
2019-05-30T09:37:37.029Z,90.80
2019-05-30T09:40:10.557Z,90.80
2019-05-30T09:42:36.781Z,90.90
2019-05-30T09:45:05.929Z,90.40
2019-05-30T09:47:32.151Z,90.60
2019-05-30T09:49:58.382Z,90.60
2019-05-30T09:52:24.725Z,90.60
2019-05-30T09:54:50.949Z,90.60
2019-05-30T09:57:17.379Z,90.20
2019-05-30T09:59:45.497Z,89.10
2019-05-30T10:02:11.925Z,89.80
2019-05-30T10:04:38.149Z,89.90
2019-05-30T10:07:04.504Z,89.60
2019-05-30T10:09:30.727Z,88.70
2019-05-30T10:11:56.949Z,89.80
2019-05-30T10:14:23.194Z,89.30
2019-05-30T10:16:54.405Z,89.20
2019-05-30T10:19:17.518Z,89.90
2019-05-30T10:21:45.498Z,88.50
2019-05-30T10:24:12.077Z,89.00
2019-05-30T10:26:38.333Z,89.20
2019-05-30T10:29:04.589Z,89.10
2019-05-30T10:31:30.805Z,89.50
2019-05-30T10:33:57.054Z,89.50
2019-05-30T10:36:23.286Z,88.80
2019-05-30T10:38:50.403Z,88.90
2019-05-30T10:41:17.461Z,89.10
2019-05-30T10:43:44.708Z,88.70
2019-05-30T10:46:11.813Z,87.80
2019-05-30T10:48:38.037Z,87.70
2019-05-30T10:51:04.362Z,88.40
2019-05-30T10:53:30.585Z,88.30
2019-05-30T10:55:56.918Z,87.10
2019-05-30T10:58:23.245Z,86.50
2019-05-30T11:00:57.152Z,85.20
2019-05-30T11:03:26.226Z,85.90
2019-05-30T11:06:17.598Z,84.20
2019-05-30T11:08:44.151Z,84.80
2019-05-30T11:11:10.501Z,84.70
2019-05-30T11:13:36.725Z,84.10
2019-05-30T11:16:03.163Z,83.30
2019-05-30T11:18:29.382Z,83.80
2019-05-30T11:20:56.352Z,83.90
2019-05-30T11:23:23.765Z,83.20
2019-05-30T11:25:50.453Z,82.60
2019-05-30T11:28:16.925Z,82.90
2019-05-30T11:30:43.235Z,83.10
2019-05-30T11:33:09.469Z,83.50
2019-05-30T11:35:36.005Z,82.70
2019-05-30T11:38:02.769Z,82.60
2019-05-30T11:40:29.197Z,82.40
2019-05-30T11:42:55.555Z,83.20
2019-05-30T11:45:23.805Z,82.80
2019-05-30T11:47:49.885Z,82.60
2019-05-30T11:50:16.705Z,83.10
2019-05-30T11:52:42.941Z,83.10
2019-05-30T11:55:10.073Z,83.00
2019-05-30T11:57:36.295Z,83.80
2019-05-30T12:00:07.277Z,84.60
2019-05-30T12:02:33.493Z,84.60
2019-05-30T12:05:00.735Z,83.60
2019-05-30T12:07:36.463Z,84.40
2019-05-30T12:09:55.284Z,84.90
2019-05-30T12:12:21.558Z,84.40
2019-05-30T12:14:47.885Z,83.40
2019-05-30T12:17:14.098Z,83.40
2019-05-30T12:19:41.429Z,83.90
2019-05-30T12:22:07.766Z,83.60
2019-05-30T12:24:34.055Z,83.50
2019-05-30T12:27:00.273Z,83.50
2019-05-30T12:29:26.541Z,82.80
2019-05-30T12:31:56.078Z,83.10
2019-05-30T12:34:21.062Z,83.00
2019-05-30T12:36:47.301Z,83.00
2019-05-30T12:39:13.523Z,82.60
2019-05-30T12:41:39.769Z,83.20
2019-05-30T12:44:06.022Z,83.30
2019-05-30T12:46:33.442Z,83.90
2019-05-30T12:48:59.774Z,83.90
2019-05-30T12:51:26.018Z,83.80
2019-05-30T12:53:52.237Z,84.00
2019-05-30T12:56:18.525Z,84.00
2019-05-30T12:58:44.757Z,83.40
2019-05-30T13:01:11.077Z,84.10
2019-05-30T13:03:37.365Z,84.20
2019-05-30T13:06:03.819Z,83.70
2019-05-30T13:08:30.037Z,83.90
2019-05-30T13:10:57.373Z,84.40
2019-05-30T13:13:24.450Z,84.30
2019-05-30T13:15:52.587Z,83.60
2019-05-30T13:18:18.854Z,83.00
2019-05-30T13:20:45.552Z,82.70
2019-05-30T13:23:11.773Z,82.80
2019-05-30T13:25:38.001Z,83.90
2019-05-30T13:28:07.151Z,83.00
2019-05-30T13:30:33.069Z,83.10
2019-05-30T13:33:00.684Z,83.40
2019-05-30T13:35:27.155Z,82.50
2019-05-30T13:37:53.474Z,83.70
2019-05-30T13:40:25.419Z,83.00
2019-05-30T13:42:48.442Z,82.80
2019-05-30T13:45:14.860Z,82.40
2019-05-30T13:47:41.181Z,81.00
2019-05-30T13:50:13.178Z,80.90
2019-05-30T13:52:37.139Z,81.50
2019-05-30T13:55:08.405Z,81.10
2019-05-30T13:57:35.286Z,80.80
2019-05-30T14:00:08.032Z,81.60
2019-05-30T14:02:35.191Z,81.30
2019-05-30T14:05:04.062Z,80.30
2019-05-30T14:07:31.623Z,80.10
2019-05-30T14:09:57.829Z,79.20
2019-05-30T14:12:24.158Z,80.50
2019-05-30T14:14:50.410Z,79.30
2019-05-30T14:17:16.650Z,78.50
2019-05-30T14:19:42.976Z,76.80
2019-05-30T14:22:09.390Z,74.70
2019-05-30T14:24:35.828Z,74.60
2019-05-30T14:27:03.357Z,74.20
2019-05-30T14:29:29.797Z,73.70
2019-05-30T14:31:56.009Z,74.60
2019-05-30T14:34:22.245Z,74.30
2019-05-30T14:36:48.649Z,72.90
2019-05-30T14:39:14.917Z,71.60
2019-05-30T14:41:41.165Z,71.70
2019-05-30T14:44:07.387Z,71.10
2019-05-30T14:46:33.809Z,71.20
2019-05-30T14:49:00.053Z,69.60
2019-05-30T14:51:26.265Z,70.80
2019-05-30T14:53:52.481Z,69.30
2019-05-30T14:56:18.720Z,69.30
2019-05-30T14:58:44.934Z,69.80
2019-05-30T15:01:11.260Z,72.00
2019-05-30T15:03:37.587Z,71.90
2019-05-30T15:06:06.894Z,71.00
2019-05-30T15:08:31.893Z,69.50
2019-05-30T15:10:58.130Z,67.10
2019-05-30T15:13:24.346Z,65.70
2019-05-30T15:15:50.562Z,64.80
2019-05-30T15:18:17.385Z,63.80
2019-05-30T15:20:43.733Z,63.40
2019-05-30T15:23:10.056Z,63.10
2019-05-30T15:25:36.390Z,62.60
2019-05-30T15:28:02.806Z,61.80
2019-05-30T15:30:29.134Z,59.60
2019-05-30T15:32:55.377Z,59.40
2019-05-30T15:35:21.672Z,58.90
2019-05-30T15:37:47.981Z,58.60
2019-05-30T15:40:17.187Z,57.10
2019-05-30T15:42:43.409Z,57.10
2019-05-30T15:45:12.109Z,57.80
2019-05-30T15:47:38.499Z,56.90
2019-05-30T15:50:05.429Z,54.10
2019-05-30T15:52:31.748Z,55.70
2019-05-30T15:54:57.985Z,55.10
2019-05-30T15:57:24.197Z,56.30
2019-05-30T15:59:50.414Z,55.30
2019-05-30T16:02:16.667Z,55.00
2019-05-30T16:04:42.978Z,55.60
2019-05-30T16:07:10.331Z,54.70
2019-05-30T16:09:46.664Z,53.90
2019-05-30T16:12:04.921Z,53.40
2019-05-30T16:14:31.130Z,53.30
2019-05-30T16:16:57.369Z,53.60
2019-05-30T16:19:26.451Z,53.30
2019-05-30T16:21:51.747Z,53.80
2019-05-30T16:24:18.535Z,53.40
2019-05-30T16:26:44.910Z,53.50
2019-05-30T16:29:11.253Z,54.30
2019-05-30T16:31:37.475Z,55.00
2019-05-30T16:34:03.801Z,54.30
2019-05-30T16:36:30.017Z,54.20
2019-05-30T16:38:56.265Z,54.30
2019-05-30T16:41:22.690Z,54.60
2019-05-30T16:43:48.993Z,54.80
2019-05-30T16:46:16.271Z,55.10
2019-05-30T16:48:42.657Z,55.10
2019-05-30T16:51:08.877Z,55.20
2019-05-30T16:53:35.126Z,55.70
2019-05-30T16:56:01.337Z,55.80
2019-05-30T16:58:27.557Z,55.10
2019-05-30T17:00:53.778Z,56.00
2019-05-30T17:03:19.994Z,56.20
2019-05-30T17:05:46.209Z,55.80
2019-05-30T17:08:12.445Z,55.90
2019-05-30T17:10:39.066Z,56.20
2019-05-30T17:13:05.290Z,56.00
2019-05-30T17:15:31.617Z,55.60
2019-05-30T17:17:57.825Z,55.20
2019-05-30T17:20:24.554Z,55.50
2019-05-30T17:22:50.896Z,55.60
2019-05-30T17:25:17.293Z,56.00
2019-05-30T17:27:43.513Z,55.80
2019-05-30T17:30:12.557Z,55.20
2019-05-30T17:32:38.773Z,54.60
2019-05-30T17:35:08.909Z,54.70
2019-05-30T17:37:35.134Z,54.80
2019-05-30T17:40:05.948Z,53.60
2019-05-30T17:42:32.288Z,53.30
2019-05-30T17:44:59.890Z,52.20
2019-05-30T17:47:27.420Z,51.90
2019-05-30T17:49:53.829Z,51.80
2019-05-30T17:52:20.058Z,51.60
2019-05-30T17:54:46.373Z,49.50
2019-05-30T17:57:12.605Z,49.10
2019-05-30T17:59:38.858Z,49.40
2019-05-30T18:02:05.074Z,45.00
2019-05-30T18:04:31.284Z,46.60
2019-05-30T18:06:57.680Z,45.40
2019-05-30T18:09:24.876Z,43.80
2019-05-30T18:11:52.408Z,44.60
2019-05-30T18:14:18.854Z,43.20
2019-05-30T18:16:45.079Z,42.50
2019-05-30T18:19:11.405Z,42.30
2019-05-30T18:21:37.745Z,42.50
2019-05-30T18:24:04.157Z,42.60
2019-05-30T18:26:31.751Z,42.20
2019-05-30T18:28:58.217Z,41.00
2019-05-30T18:31:25.816Z,40.20
2019-05-30T18:33:52.165Z,39.00
2019-05-30T18:36:18.405Z,40.50
2019-05-30T18:38:44.621Z,39.00
2019-05-30T18:41:14.202Z,39.20
2019-05-30T18:43:39.116Z,38.80
2019-05-30T18:46:05.435Z,39.60
2019-05-30T18:48:31.760Z,39.30
2019-05-30T18:50:58.022Z,38.50
2019-05-30T18:53:24.325Z,37.80
2019-05-30T18:55:50.573Z,36.20
2019-05-30T18:58:16.812Z,35.90
2019-05-30T19:00:43.025Z,35.00
2019-05-30T19:03:09.349Z,35.80
2019-05-30T19:05:36.844Z,35.70
2019-05-30T19:08:03.487Z,36.00
2019-05-30T19:10:30.045Z,36.40
2019-05-30T19:12:57.446Z,36.90
2019-05-30T19:15:27.127Z,35.50
2019-05-30T19:17:52.109Z,36.00
2019-05-30T19:20:18.741Z,36.90
2019-05-30T19:22:44.957Z,36.60
2019-05-30T19:25:11.718Z,36.90
2019-05-30T19:27:38.587Z,37.40
2019-05-30T19:30:07.577Z,35.70
2019-05-30T19:32:35.081Z,34.80
2019-05-30T19:35:03.249Z,33.90
2019-05-30T19:37:31.113Z,33.50
2019-05-30T19:39:57.586Z,33.30
2019-05-30T19:42:23.984Z,33.30
2019-05-30T19:44:50.225Z,32.50
2019-05-30T19:47:16.512Z,32.10
2019-05-30T19:49:42.760Z,32.80
2019-05-30T19:52:09.065Z,34.00
2019-05-30T19:54:35.277Z,34.80
2019-05-30T19:57:01.525Z,35.50
2019-05-30T19:59:27.824Z,36.40
2019-05-30T20:01:54.035Z,37.10
2019-05-30T20:04:20.266Z,37.90
2019-05-30T20:06:46.573Z,37.90
2019-05-30T20:09:12.793Z,38.60
2019-05-30T20:11:39.346Z,39.70
2019-05-30T20:14:05.825Z,40.50
2019-05-30T20:16:32.048Z,40.90
2019-05-30T20:18:58.325Z,41.10
2019-05-30T20:21:24.549Z,40.90
2019-05-30T20:23:55.460Z,40.30
2019-05-30T20:26:18.969Z,40.50
2019-05-30T20:28:45.183Z,39.40
2019-05-30T20:31:11.406Z,37.10
2019-05-30T20:33:38.391Z,37.60
2019-05-30T20:36:04.793Z,36.90
2019-05-30T20:38:31.025Z,37.10
2019-05-30T20:40:57.298Z,37.80
2019-05-30T20:43:23.622Z,38.40
2019-05-30T20:45:50.148Z,38.40
2019-05-30T20:48:16.458Z,39.20
2019-05-30T20:50:43.255Z,40.00
2019-05-30T20:53:09.591Z,40.60
2019-05-30T20:55:36.374Z,40.70
2019-05-30T20:58:02.869Z,40.90
2019-05-30T21:00:37.850Z,41.00
2019-05-30T21:03:04.663Z,39.90
2019-05-30T21:05:31.309Z,40.60
2019-05-30T21:07:57.751Z,39.90
2019-05-30T21:10:24.102Z,39.90
2019-05-30T21:12:51.625Z,40.10
2019-05-30T21:15:18.168Z,40.70
2019-05-30T21:17:45.921Z,41.80
2019-05-30T21:20:13.386Z,42.50
2019-05-30T21:22:40.207Z,43.10
2019-05-30T21:25:07.504Z,43.00
2019-05-30T21:27:33.820Z,43.20
2019-05-30T21:30:00.091Z,42.50
2019-05-30T21:32:27.525Z,42.60
2019-05-30T21:34:54.071Z,42.60
2019-05-30T21:37:20.622Z,43.50
2019-05-30T21:39:48.102Z,43.90
2019-05-30T21:42:14.500Z,43.90
2019-05-30T21:44:40.841Z,44.40
2019-05-30T21:47:07.070Z,45.20
2019-05-30T21:49:33.345Z,43.70
2019-05-30T21:51:59.607Z,42.70
2019-05-30T21:54:25.942Z,42.60
2019-05-30T21:56:52.177Z,46.10
2019-05-30T21:59:18.461Z,46.50
2019-05-30T22:01:44.892Z,47.20
2019-05-30T22:04:11.325Z,48.00
2019-05-30T22:06:37.651Z,49.40
2019-05-30T22:09:06.094Z,49.10
2019-05-30T22:11:32.530Z,48.00
2019-05-30T22:13:58.913Z,47.50
2019-05-30T22:16:25.249Z,47.20
2019-05-30T22:18:52.227Z,47.70
2019-05-30T22:21:19.145Z,48.20
2019-05-30T22:23:46.241Z,47.80
2019-05-30T22:26:12.603Z,49.60
2019-05-30T22:28:39.941Z,49.30
2019-05-30T22:31:06.161Z,48.30
2019-05-30T22:33:32.394Z,48.40
2019-05-30T22:35:58.639Z,47.90
2019-05-30T22:38:24.964Z,48.00
2019-05-30T22:40:52.075Z,47.20
2019-05-30T22:43:25.422Z,48.00
2019-05-30T22:45:48.191Z,49.30
2019-05-30T22:48:14.613Z,49.20
2019-05-30T22:50:40.870Z,49.60
2019-05-30T22:53:07.093Z,48.70
2019-05-30T22:55:33.313Z,49.30
2019-05-30T22:57:59.650Z,49.00
2019-05-30T23:00:25.985Z,49.00
2019-05-30T23:02:52.292Z,47.80
2019-05-30T23:05:18.673Z,48.70
2019-05-30T23:07:45.295Z,50.00
2019-05-30T23:10:12.207Z,53.40
2019-05-30T23:12:38.458Z,51.30
2019-05-30T23:15:05.183Z,48.60
2019-05-30T23:17:31.400Z,48.70
2019-05-30T23:19:57.753Z,49.20
2019-05-30T23:22:23.997Z,52.00
2019-05-30T23:24:52.269Z,53.00
2019-05-30T23:27:18.362Z,52.30
2019-05-30T23:29:44.669Z,51.10
2019-05-30T23:32:10.982Z,50.40
2019-05-30T23:34:37.253Z,49.50
2019-05-30T23:37:03.478Z,49.10
2019-05-30T23:39:29.705Z,49.20
2019-05-30T23:41:57.129Z,49.10
2019-05-30T23:44:23.564Z,48.80
2019-05-30T23:46:49.782Z,49.20
2019-05-30T23:49:16.025Z,49.20
2019-05-30T23:51:42.248Z,49.10
2019-05-30T23:54:08.464Z,49.00
2019-05-30T23:56:34.808Z,49.00
2019-05-30T23:59:01.371Z,48.60
